CYQG

Windsor Airport

Windsor, , Canada
TAF CYQG 151140Z 1512/1612 09008KT P6SM FEW025 OVC120 FM151400 13012KT 6SM -SN SCT025 OVC080 FM151500 13012KT 2SM -SNRA OVC015 PROB40 1516/1520 1SM -SN VV009 FM152000 14012KT 1SM -RASN BR OVC006 TEMPO 1520/1522 3SM -RA BR SCT006 OVC012 FM160000 17010KT 3SM -SHRA BR BKN008 OVC015 FM160500 25010KT 6SM BR SCT008 BKN015 BECMG 1608/1609 26012G22KT RMK FCST BASED ON AUTO OBS. NXT FCST BY 151800Z
Issued Valid From Valid To
Nov-15 @ 11:40 UTC
(an hour ago)
Nov-15 @ 12:00 UTC
(42 minutes ago)
Nov-16 @ 12:00 UTC
(in 23 hours)
Nov-15 @ 12:00 to Nov-15 @ 14:00
TAF CYQG 151140Z 1512/1612 09008KT P6SM FEW025 OVC120
Wind Visibility Clouds
90° at 8 knots Greater than 6 miles
  • Few at 2,500' AGL
  • Overcast at 12,000' AGL
From Nov-15 @ 14:00 to Nov-15 @ 15:00
FM151400 13012KT 6SM -SN SCT025 OVC080
Wind Visibility Clouds Conditions
130° at 12 knots 6 miles
  • Scattered at 2,500' AGL
  • Overcast at 8,000' AGL
  • Light Snow
From Nov-15 @ 15:00 to Nov-15 @ 20:00
FM151500 13012KT 2SM -SNRA OVC015
Wind Visibility Clouds Conditions
130° at 12 knots 2 miles
  • Overcast at 1,500' AGL
  • Light Snow
  • Light Rain
Probable  (Probability 40%) Nov-15 @ 16:00 to Nov-15 @ 20:00
PROB40 1516/1520 1SM -SN VV009
Visibility Clouds Conditions
1 miles
  • Vertical visibility at 900' AGL
  • Light Snow
Temporary Nov-15 @ 20:00 to Nov-15 @ 22:00
TEMPO 1520/1522 3SM -RA BR SCT006 OVC012
Visibility Clouds Conditions
3 miles
  • Scattered at 600' AGL
  • Overcast at 1,200' AGL
  • Light Rain
  • Mist
From Nov-15 @ 20:00 to Nov-16 @ 00:00
FM152000 14012KT 1SM -RASN BR OVC006
Wind Visibility Clouds Conditions
140° at 12 knots 1 miles
  • Overcast at 600' AGL
  • Light Rain
  • Light Snow
  • Mist
From Nov-16 @ 00:00 to Nov-16 @ 05:00
FM160000 17010KT 3SM -SHRA BR BKN008 OVC015
Wind Visibility Clouds Conditions
170° at 10 knots 3 miles
  • Broken at 800' AGL
  • Overcast at 1,500' AGL
  • Light Rain
  • Mist
From Nov-16 @ 05:00 to Nov-16 @ 08:00
FM160500 25010KT 6SM BR SCT008 BKN015
Wind Visibility Clouds Conditions
250° at 10 knots 6 miles
  • Scattered at 800' AGL
  • Broken at 1,500' AGL
  • Mist
Becoming Nov-16 @ 08:00 to Nov-16 @ 12:00
BECMG 1608/1609 26012G22KT RMK FCST BASED ON AUTO OBS. NXT FCST BY 151800Z
Wind Visibility Clouds Conditions
260° at 12 knots
 Gusting to 22 knots
6 miles
  • Scattered at 800' AGL
  • Broken at 1,500' AGL
  • Mist
TAF CYQG 151140Z 1512/1612 09008KT P6SM FEW025 OVC120 FM151400 13012KT 6SM -SN SCT025 OVC080 FM151500 13012KT 2SM -SNRA OVC015 PROB40 1516/1520 1SM -SN VV009 FM152000 14012KT 1SM -RASN BR OVC006 TEMPO 1520/1522 3SM -RA BR SCT006 OVC012 FM160000 17010KT 3SM -SHRA BR BKN008 OVC015 FM160500 25010KT 6SM BR SCT008 BKN015 BECMG 1608/1609 26012G22KT RMK FCST BASED ON AUTO OBS. NXT FCST BY 151800Z
Issued Nov-15 @ 11:40 UTC
(an hour ago)
Valid From Nov-15 @ 12:00 UTC
(42 minutes ago)
Valid To Nov-16 @ 12:00 UTC
(in 23 hours)
Nov-15 @ 12:00 - Nov-15 @ 14:00
Wind Visibility
90° at 8 knots Greater than 6 miles
Clouds
  • Few at 2,500' AGL
  • Overcast at 12,000' AGL
From Nov-15 @ 14:00 - Nov-15 @ 15:00
Wind Visibility
130° at 12 knots 6 miles
Clouds
  • Scattered at 2,500' AGL
  • Overcast at 8,000' AGL
Conditions
  • Light Snow
From Nov-15 @ 15:00 - Nov-15 @ 20:00
Wind Visibility
130° at 12 knots 2 miles
Clouds
  • Overcast at 1,500' AGL
Conditions
  • Light Snow
  • Light Rain
Probability 40% Probable Nov-15 @ 16:00 - Nov-15 @ 20:00
Clouds
  • Vertical visibility at 900' AGL
Conditions
  • Light Snow
Temporary Nov-15 @ 20:00 - Nov-15 @ 22:00
Clouds
  • Scattered at 600' AGL
  • Overcast at 1,200' AGL
Conditions
  • Light Rain
  • Mist
From Nov-15 @ 20:00 - Nov-16 @ 00:00
Wind Visibility
140° at 12 knots 1 miles
Clouds
  • Overcast at 600' AGL
Conditions
  • Light Rain
  • Light Snow
  • Mist
From Nov-16 @ 00:00 - Nov-16 @ 05:00
Wind Visibility
170° at 10 knots 3 miles
Clouds
  • Broken at 800' AGL
  • Overcast at 1,500' AGL
Conditions
  • Light Rain
  • Mist
From Nov-16 @ 05:00 - Nov-16 @ 08:00
Wind Visibility
250° at 10 knots 6 miles
Clouds
  • Scattered at 800' AGL
  • Broken at 1,500' AGL
Conditions
  • Mist
Becoming Nov-16 @ 08:00 - Nov-16 @ 12:00
Wind Visibility
260° at 12 knots
 Gusting to 22 knots
6 miles
Clouds
  • Scattered at 800' AGL
  • Broken at 1,500' AGL
Conditions
  • Mist